Time;durP1;ratioP1;P1;durP2;ratioP2;P2;SDS_P1;SDS_P2;PMS_P1;PMS_P2;Temp;Humidity;BMP_temperature;BMP_pressure;BME280_temperature;BME280_humidity;BME280_pressure;Samples;Min_cycle;Max_cycle;Signal;HPM_P1;HPM_P2
2022/08/29 00:00:00;;;;;;;12.47;6.77;;;;;;;;;;5042585;28;20182;-81
2022/08/29 00:02:27;;;;;;;10.57;6.37;;;;;;;;;;5049161;28;20293;-81
2022/08/29 00:04:54;;;;;;;10.30;6.10;;;;;;;;;;5031533;28;20194;-82
2022/08/29 00:07:21;;;;;;;11.30;7.10;;;;;;;;;;5048634;28;20191;-82
2022/08/29 00:09:47;;;;;;;10.60;6.87;;;;;;;;;;5046446;28;20652;-81
2022/08/29 00:12:15;;;;;;;14.57;7.20;;;;;;;;;;5014402;28;20339;-81
2022/08/29 00:14:41;;;;;;;12.70;7.50;;;;;;;;;;5031389;28;20650;-82
2022/08/29 00:17:09;;;;;;;12.17;7.20;;;;;;;;;;5042501;28;20190;-83
2022/08/29 00:19:38;;;;;;;12.07;7.03;;;;;;;;;;5049062;28;20190;-81
2022/08/29 00:22:05;;;;;;;12.37;7.10;;;;;;;;;;5048816;28;20222;-81
2022/08/29 00:24:32;;;;;;;12.20;7.53;;;;;;;;;;5048996;28;20280;-81
2022/08/29 00:27:00;;;;;;;12.43;7.97;;;;;;;;;;5022605;28;20635;-81
2022/08/29 00:29:27;;;;;;;12.03;7.40;;;;;;;;;;5020271;28;20914;-79
2022/08/29 00:31:54;;;;;;;11.47;7.07;;;;;;;;;;5047605;28;20281;-82
2022/08/29 00:34:21;;;;;;;13.33;6.90;;;;;;;;;;5012220;28;20659;-82
2022/08/29 00:36:47;;;;;;;10.97;6.03;;;;;;;;;;5046777;28;20589;-82
2022/08/29 00:39:14;;;;;;;11.30;6.53;;;;;;;;;;5047211;28;20194;-82
2022/08/29 00:41:41;;;;;;;10.40;6.37;;;;;;;;;;5049246;28;20290;-81
2022/08/29 00:44:08;;;;;;;9.07;6.57;;;;;;;;;;5031098;28;20573;-80
2022/08/29 00:46:42;;;;;;;12.27;6.63;;;;;;;;;;5050654;28;20575;-81
2022/08/29 00:49:26;;;;;;;14.13;6.83;;;;;;;;;;5047378;28;20195;-78
2022/08/29 00:51:53;;;;;;;11.70;6.20;;;;;;;;;;5027546;28;20214;-82
2022/08/29 00:54:20;;;;;;;11.80;7.10;;;;;;;;;;5034074;28;20684;-81
2022/08/29 00:56:48;;;;;;;10.70;7.13;;;;;;;;;;5007184;28;20196;-80
2022/08/29 00:59:19;;;;;;;10.47;7.10;;;;;;;;;;5015990;28;20188;-81
2022/08/29 01:01:47;;;;;;;13.43;6.97;;;;;;;;;;5031910;28;20626;-81
2022/08/29 01:04:14;;;;;;;13.53;6.50;;;;;;;;;;5030679;28;20194;-81
2022/08/29 01:06:52;;;;;;;12.97;6.77;;;;;;;;;;5030091;28;20195;-79
2022/08/29 01:09:19;;;;;;;11.00;6.23;;;;;;;;;;5030303;28;20191;-81
2022/08/29 01:14:32;;;;;;;14.67;6.37;;;;;;;;;;5031619;28;20183;-78
2022/08/29 01:17:04;;;;;;;12.83;6.57;;;;;;;;;;5029909;28;20202;-80
2022/08/29 01:19:36;;;;;;;11.93;6.60;;;;;;;;;;5030143;28;20188;-80
2022/08/29 01:22:06;;;;;;;13.27;6.27;;;;;;;;;;5028365;28;20223;-78
2022/08/29 01:24:49;;;;;;;11.97;5.83;;;;;;;;;;5036314;28;20222;-77
2022/08/29 01:27:19;;;;;;;13.20;5.87;;;;;;;;;;5033115;28;20201;-78
2022/08/29 01:29:47;;;;;;;13.37;5.50;;;;;;;;;;5041480;28;20202;-78
2022/08/29 01:32:14;;;;;;;11.50;5.87;;;;;;;;;;5044608;28;20665;-77
2022/08/29 01:34:41;;;;;;;13.83;6.03;;;;;;;;;;5049611;28;20237;-78
2022/08/29 01:37:26;;;;;;;13.53;4.83;;;;;;;;;;5049587;28;20178;-76
2022/08/29 01:39:54;;;;;;;9.43;5.40;;;;;;;;;;5044851;28;20197;-77
2022/08/29 01:42:21;;;;;;;14.33;5.43;;;;;;;;;;5050410;28;20929;-76
2022/08/29 01:44:50;;;;;;;13.87;5.87;;;;;;;;;;5049806;28;20216;-78
2022/08/29 01:47:18;;;;;;;13.13;5.60;;;;;;;;;;5049166;28;20195;-77
2022/08/29 01:49:45;;;;;;;16.70;5.53;;;;;;;;;;5050243;28;20269;-77
2022/08/29 01:52:11;;;;;;;12.50;5.90;;;;;;;;;;5053211;28;20550;-77
2022/08/29 01:54:39;;;;;;;11.37;5.57;;;;;;;;;;5050160;28;20219;-77
2022/08/29 01:57:06;;;;;;;11.77;5.43;;;;;;;;;;5049608;28;20198;-77
2022/08/29 01:59:39;;;;;;;10.50;5.37;;;;;;;;;;5029484;28;20273;-77
2022/08/29 02:02:14;;;;;;;14.27;5.07;;;;;;;;;;5048623;28;20312;-77
2022/08/29 02:04:41;;;;;;;10.60;5.10;;;;;;;;;;5049652;28;20194;-76
2022/08/29 02:07:08;;;;;;;11.60;4.97;;;;;;;;;;5049160;28;20232;-76
2022/08/29 02:09:38;;;;;;;15.53;5.53;;;;;;;;;;5048921;28;20183;-77
2022/08/29 02:12:11;;;;;;;15.43;5.33;;;;;;;;;;5016440;28;20226;-77
2022/08/29 02:14:38;;;;;;;11.73;5.27;;;;;;;;;;5046768;28;20183;-78
2022/08/29 02:17:08;;;;;;;10.70;5.90;;;;;;;;;;5049747;28;20298;-77
2022/08/29 02:19:36;;;;;;;11.30;5.10;;;;;;;;;;5048394;28;20194;-77
2022/08/29 02:22:03;;;;;;;9.57;5.20;;;;;;;;;;5049437;28;20209;-77
2022/08/29 02:24:30;;;;;;;9.43;4.83;;;;;;;;;;5048861;28;20258;-77
2022/08/29 02:26:57;;;;;;;9.67;5.47;;;;;;;;;;5031648;28;20274;-77
2022/08/29 02:29:24;;;;;;;12.07;5.23;;;;;;;;;;5048017;28;20191;-77
2022/08/29 02:31:57;;;;;;;11.23;5.57;;;;;;;;;;5044483;28;20380;-77
2022/08/29 02:34:23;;;;;;;12.07;5.67;;;;;;;;;;5049651;28;20933;-77
2022/08/29 02:36:51;;;;;;;11.60;5.03;;;;;;;;;;5049404;28;20281;-77
2022/08/29 02:39:18;;;;;;;10.17;5.40;;;;;;;;;;5049106;28;20735;-77
2022/08/29 02:41:45;;;;;;;12.10;5.60;;;;;;;;;;5049673;28;20213;-77
2022/08/29 02:44:12;;;;;;;12.77;5.90;;;;;;;;;;5049414;28;20191;-77
2022/08/29 02:46:39;;;;;;;8.43;5.10;;;;;;;;;;5047049;28;20194;-78
2022/08/29 02:49:06;;;;;;;11.53;5.20;;;;;;;;;;5049030;28;20638;-78
2022/08/29 02:51:33;;;;;;;12.80;5.70;;;;;;;;;;5048997;28;20215;-77
2022/08/29 02:53:59;;;;;;;11.60;4.60;;;;;;;;;;5048749;28;20199;-77
2022/08/29 02:56:26;;;;;;;13.30;5.47;;;;;;;;;;5048099;28;20666;-77
2022/08/29 02:58:53;;;;;;;12.30;5.63;;;;;;;;;;5048108;28;20670;-78
2022/08/29 03:01:20;;;;;;;11.13;5.50;;;;;;;;;;5049077;28;20197;-78
2022/08/29 03:03:49;;;;;;;9.57;5.27;;;;;;;;;;5047065;28;20210;-77
2022/08/29 03:06:17;;;;;;;10.50;5.20;;;;;;;;;;5048379;28;20197;-75
2022/08/29 03:08:44;;;;;;;9.67;5.17;;;;;;;;;;5003004;28;20906;-75
2022/08/29 03:11:12;;;;;;;10.57;5.13;;;;;;;;;;5041013;28;20209;-77
2022/08/29 03:13:42;;;;;;;11.40;4.97;;;;;;;;;;5039069;28;20210;-76
2022/08/29 03:16:09;;;;;;;12.40;5.17;;;;;;;;;;5022200;28;20202;-74
2022/08/29 03:18:36;;;;;;;11.23;5.20;;;;;;;;;;5040582;28;20202;-74
2022/08/29 03:21:04;;;;;;;12.03;5.77;;;;;;;;;;5039845;28;20295;-76
2022/08/29 03:23:31;;;;;;;11.00;5.13;;;;;;;;;;5038056;28;20250;-73
2022/08/29 03:25:58;;;;;;;13.30;5.83;;;;;;;;;;5039117;28;20230;-82
2022/08/29 03:28:43;;;;;;;9.77;5.20;;;;;;;;;;5034148;28;20222;-71
2022/08/29 03:31:10;;;;;;;11.90;5.27;;;;;;;;;;5041132;28;20301;-71
2022/08/29 03:33:37;;;;;;;10.23;5.03;;;;;;;;;;5039359;28;20221;-74
2022/08/29 03:36:04;;;;;;;9.17;5.13;;;;;;;;;;5037599;28;20264;-72
2022/08/29 03:38:39;;;;;;;10.17;4.83;;;;;;;;;;5007242;28;20194;-77
2022/08/29 03:41:07;;;;;;;9.73;5.07;;;;;;;;;;5037439;28;20285;-76
2022/08/29 03:43:33;;;;;;;10.47;5.00;;;;;;;;;;5039082;28;20288;-75
2022/08/29 03:46:00;;;;;;;10.37;4.97;;;;;;;;;;5021779;28;20190;-75
2022/08/29 03:48:27;;;;;;;9.53;5.10;;;;;;;;;;5029866;28;20313;-72
2022/08/29 03:51:13;;;;;;;10.67;5.30;;;;;;;;;;5021238;28;20286;-72
2022/08/29 03:53:40;;;;;;;10.73;5.40;;;;;;;;;;5040376;28;20195;-74
2022/08/29 03:56:08;;;;;;;8.67;5.33;;;;;;;;;;5038438;28;20285;-72
2022/08/29 03:58:44;;;;;;;9.20;4.73;;;;;;;;;;5038431;28;20713;-71
2022/08/29 04:01:18;;;;;;;11.03;4.77;;;;;;;;;;5005762;28;20272;-76
2022/08/29 04:03:45;;;;;;;8.30;5.30;;;;;;;;;;5037734;28;20242;-69
2022/08/29 04:06:30;;;;;;;9.43;5.13;;;;;;;;;;5039907;28;20190;-73
2022/08/29 04:08:57;;;;;;;13.13;6.50;;;;;;;;;;5010677;28;20276;-74
2022/08/29 04:11:25;;;;;;;12.93;5.53;;;;;;;;;;5040115;28;20666;-72
2022/08/29 04:13:52;;;;;;;8.67;5.50;;;;;;;;;;5037707;28;20229;-75
2022/08/29 04:16:20;;;;;;;11.13;5.73;;;;;;;;;;5026383;28;20284;-74
2022/08/29 04:18:47;;;;;;;10.93;6.47;;;;;;;;;;5039667;28;20194;-72
2022/08/29 04:21:15;;;;;;;9.37;6.03;;;;;;;;;;5050591;28;20194;-80
2022/08/29 04:23:42;;;;;;;9.50;6.07;;;;;;;;;;5035178;28;20792;-80
2022/08/29 04:26:11;;;;;;;11.43;6.20;;;;;;;;;;5013420;28;20255;-82
2022/08/29 04:28:59;;;;;;;12.90;6.90;;;;;;;;;;5029398;28;20191;-80
2022/08/29 04:31:26;;;;;;;10.93;6.70;;;;;;;;;;5018975;28;20321;-82
2022/08/29 04:33:54;;;;;;;12.30;6.93;;;;;;;;;;5015106;28;20287;-80
2022/08/29 04:36:22;;;;;;;11.30;6.43;;;;;;;;;;5003306;28;20180;-76
2022/08/29 04:38:49;;;;;;;14.03;7.87;;;;;;;;;;5005940;28;21030;-74
2022/08/29 04:41:18;;;;;;;11.47;7.27;;;;;;;;;;5020832;28;20196;-75
2022/08/29 04:43:45;;;;;;;9.97;6.90;;;;;;;;;;5019169;28;20215;-77
2022/08/29 04:46:13;;;;;;;12.37;7.37;;;;;;;;;;5017701;28;20210;-75
2022/08/29 04:48:55;;;;;;;10.30;6.77;;;;;;;;;;4991968;28;20207;-81
2022/08/29 04:51:29;;;;;;;12.73;7.33;;;;;;;;;;5024182;28;20234;-75
2022/08/29 04:53:55;;;;;;;13.47;6.73;;;;;;;;;;5004691;28;20195;-72
2022/08/29 04:56:22;;;;;;;11.17;7.43;;;;;;;;;;5022084;28;21106;-72
2022/08/29 04:58:50;;;;;;;12.13;6.97;;;;;;;;;;5004983;28;20184;-71
2022/08/29 05:01:22;;;;;;;8.23;6.30;;;;;;;;;;5005280;28;20274;-72
2022/08/29 05:03:55;;;;;;;11.30;6.17;;;;;;;;;;5021927;28;20223;-78
2022/08/29 05:06:27;;;;;;;17.00;6.40;;;;;;;;;;5005634;28;21442;-74
2022/08/29 05:08:58;;;;;;;11.97;5.57;;;;;;;;;;5004133;28;20623;-73
2022/08/29 05:11:27;;;;;;;10.73;5.50;;;;;;;;;;5004933;28;20207;-76
2022/08/29 05:13:54;;;;;;;11.37;5.80;;;;;;;;;;5020189;28;20362;-72
2022/08/29 05:16:21;;;;;;;13.40;6.00;;;;;;;;;;5003147;28;20206;-72
2022/08/29 05:18:47;;;;;;;10.53;5.83;;;;;;;;;;5002040;28;20329;-75
2022/08/29 05:21:25;;;;;;;10.07;6.23;;;;;;;;;;4986974;28;20211;-74
2022/08/29 05:23:55;;;;;;;9.97;5.80;;;;;;;;;;5003722;28;20243;-72
2022/08/29 05:26:22;;;;;;;10.87;6.00;;;;;;;;;;5006888;28;20186;-71
2022/08/29 05:28:49;;;;;;;9.60;5.80;;;;;;;;;;5025872;28;20331;-71
2022/08/29 05:31:16;;;;;;;13.87;5.87;;;;;;;;;;5029364;28;20535;-73
2022/08/29 05:33:43;;;;;;;11.20;5.60;;;;;;;;;;4988011;28;20303;-72
2022/08/29 05:36:10;;;;;;;10.63;5.70;;;;;;;;;;5033234;28;20357;-76
2022/08/29 05:38:37;;;;;;;9.20;5.07;;;;;;;;;;5025897;28;20666;-75
2022/08/29 05:41:05;;;;;;;10.77;5.23;;;;;;;;;;5030282;28;20241;-72
2022/08/29 05:43:32;;;;;;;12.37;5.50;;;;;;;;;;5009912;28;20219;-72
2022/08/29 05:46:03;;;;;;;11.57;5.53;;;;;;;;;;5020787;28;20191;-76
2022/08/29 05:48:30;;;;;;;13.10;5.67;;;;;;;;;;4993374;28;20216;-73
2022/08/29 05:50:57;;;;;;;10.43;5.47;;;;;;;;;;5028854;28;20187;-74
2022/08/29 05:53:27;;;;;;;14.33;5.33;;;;;;;;;;5023318;28;20270;-73
2022/08/29 05:55:54;;;;;;;9.63;5.03;;;;;;;;;;5029842;28;20984;-71
2022/08/29 05:58:21;;;;;;;9.63;5.00;;;;;;;;;;5023300;28;20282;-72
2022/08/29 06:00:49;;;;;;;10.03;5.10;;;;;;;;;;4989241;28;20969;-71
2022/08/29 06:03:16;;;;;;;6.57;3.83;;;;;;;;;;5028389;28;20293;-71
2022/08/29 06:05:48;;;;;;;7.97;3.80;;;;;;;;;;4996039;28;20926;-71
2022/08/29 06:08:15;;;;;;;6.23;3.60;;;;;;;;;;5025757;28;20667;-71
2022/08/29 06:10:44;;;;;;;7.90;3.90;;;;;;;;;;5027682;28;20179;-71
2022/08/29 06:13:11;;;;;;;9.33;3.70;;;;;;;;;;5023491;28;20281;-71
2022/08/29 06:15:41;;;;;;;6.77;3.47;;;;;;;;;;5010093;28;20577;-71
2022/08/29 06:18:08;;;;;;;7.67;4.20;;;;;;;;;;4999925;28;20199;-71
2022/08/29 06:20:36;;;;;;;8.77;3.57;;;;;;;;;;5026727;28;20194;-69
2022/08/29 06:23:03;;;;;;;16.47;7.47;;;;;;;;;;5019634;28;20208;-70
2022/08/29 06:25:30;;;;;;;5.77;3.40;;;;;;;;;;5038942;28;20210;-71
2022/08/29 06:28:11;;;;;;;5.33;3.00;;;;;;;;;;5038939;28;20621;-76
2022/08/29 06:30:49;;;;;;;5.90;3.63;;;;;;;;;;5047797;28;20205;-79
2022/08/29 06:33:16;;;;;;;6.17;2.97;;;;;;;;;;5049980;28;20273;-75
2022/08/29 06:35:43;;;;;;;5.53;3.00;;;;;;;;;;5049718;28;20202;-78
2022/08/29 06:38:12;;;;;;;7.77;3.57;;;;;;;;;;5049378;28;20199;-77
2022/08/29 06:40:40;;;;;;;6.73;2.60;;;;;;;;;;5049439;28;20195;-79
2022/08/29 06:43:07;;;;;;;5.40;2.80;;;;;;;;;;5049830;28;20690;-77
2022/08/29 06:45:38;;;;;;;4.93;2.67;;;;;;;;;;5046333;28;20229;-78
2022/08/29 06:48:06;;;;;;;7.07;2.60;;;;;;;;;;5023042;28;20210;-78
2022/08/29 06:50:36;;;;;;;3.40;2.60;;;;;;;;;;5032004;28;20205;-79
2022/08/29 06:53:09;;;;;;;6.87;2.40;;;;;;;;;;5032797;28;20269;-78
2022/08/29 06:55:58;;;;;;;5.77;2.63;;;;;;;;;;5034801;28;20190;-78
2022/08/29 06:58:25;;;;;;;4.97;2.07;;;;;;;;;;5014141;28;20277;-79
2022/08/29 07:00:52;;;;;;;6.43;2.03;;;;;;;;;;5027851;28;20294;-79
2022/08/29 07:03:21;;;;;;;4.73;1.97;;;;;;;;;;5038568;28;20209;-78
2022/08/29 07:05:53;;;;;;;8.07;2.20;;;;;;;;;;5022232;28;20246;-79
2022/08/29 07:08:20;;;;;;;5.60;1.90;;;;;;;;;;5028342;28;20622;-80
2022/08/29 07:10:47;;;;;;;3.60;2.00;;;;;;;;;;5029328;28;20191;-77
2022/08/29 07:13:14;;;;;;;5.90;1.90;;;;;;;;;;5029176;28;20245;-80
2022/08/29 07:15:42;;;;;;;3.43;1.80;;;;;;;;;;5027946;28;20309;-78
2022/08/29 07:18:09;;;;;;;4.90;2.17;;;;;;;;;;5029482;28;20188;-77
2022/08/29 07:20:40;;;;;;;4.10;2.07;;;;;;;;;;5029017;28;20187;-77
2022/08/29 07:23:08;;;;;;;4.73;1.80;;;;;;;;;;5028209;28;20710;-78
2022/08/29 07:25:37;;;;;;;3.77;1.70;;;;;;;;;;5025452;28;20693;-78
2022/08/29 07:28:22;;;;;;;2.93;1.30;;;;;;;;;;5049374;28;20167;-79
2022/08/29 07:30:49;;;;;;;2.13;1.33;;;;;;;;;;5047634;28;20189;-79
2022/08/29 07:33:16;;;;;;;4.03;1.13;;;;;;;;;;5048763;28;20194;-78
2022/08/29 07:35:43;;;;;;;3.00;1.50;;;;;;;;;;5048575;28;20187;-78
2022/08/29 07:38:10;;;;;;;2.37;1.37;;;;;;;;;;5048793;28;20226;-78
2022/08/29 07:40:37;;;;;;;4.03;1.67;;;;;;;;;;5048787;28;20186;-78
2022/08/29 07:43:04;;;;;;;4.60;1.60;;;;;;;;;;5047810;28;20257;-78
2022/08/29 07:45:31;;;;;;;5.53;1.50;;;;;;;;;;5045918;28;20700;-79
2022/08/29 07:47:59;;;;;;;4.33;1.40;;;;;;;;;;5048902;28;20272;-78
2022/08/29 07:50:47;;;;;;;3.33;1.33;;;;;;;;;;5032867;28;20646;-76
2022/08/29 07:53:14;;;;;;;4.23;1.30;;;;;;;;;;5048828;28;20199;-78
2022/08/29 07:55:41;;;;;;;2.93;1.40;;;;;;;;;;5045613;28;20742;-77
2022/08/29 07:58:08;;;;;;;6.67;1.53;;;;;;;;;;5031051;28;20554;-78
2022/08/29 08:00:34;;;;;;;2.63;1.50;;;;;;;;;;5047402;28;20222;-77
2022/08/29 08:03:01;;;;;;;5.23;1.50;;;;;;;;;;5048504;28;20191;-77
2022/08/29 08:05:28;;;;;;;3.37;1.40;;;;;;;;;;5047336;28;20293;-79
2022/08/29 08:07:55;;;;;;;5.87;1.73;;;;;;;;;;5046943;28;20199;-79
2022/08/29 08:10:22;;;;;;;1.83;1.20;;;;;;;;;;5047879;28;20279;-78
2022/08/29 08:12:52;;;;;;;3.93;1.47;;;;;;;;;;5048499;28;20200;-78
2022/08/29 08:15:20;;;;;;;5.63;1.50;;;;;;;;;;5047880;28;20236;-78
2022/08/29 08:17:47;;;;;;;3.53;1.40;;;;;;;;;;5048679;28;20191;-77
2022/08/29 08:20:15;;;;;;;2.03;1.37;;;;;;;;;;5047144;28;20210;-79
2022/08/29 08:22:42;;;;;;;2.20;1.23;;;;;;;;;;5047166;28;20187;-78
2022/08/29 08:25:09;;;;;;;3.70;1.40;;;;;;;;;;5047948;28;20238;-79
2022/08/29 08:27:36;;;;;;;4.50;1.60;;;;;;;;;;5046844;28;20187;-77
2022/08/29 08:30:09;;;;;;;2.90;1.40;;;;;;;;;;5047282;28;20201;-77
2022/08/29 08:32:36;;;;;;;2.73;1.40;;;;;;;;;;5048494;28;20189;-77
2022/08/29 08:35:03;;;;;;;1.90;0.90;;;;;;;;;;5029325;28;20206;-78
2022/08/29 08:37:30;;;;;;;2.70;1.37;;;;;;;;;;5046672;28;20193;-79
2022/08/29 08:39:57;;;;;;;3.73;1.20;;;;;;;;;;5047112;28;20270;-78
2022/08/29 08:42:52;;;;;;;2.20;1.07;;;;;;;;;;5014268;28;20198;-78
2022/08/29 08:45:21;;;;;;;1.87;1.00;;;;;;;;;;5032667;28;20213;-79
2022/08/29 08:47:49;;;;;;;1.80;1.17;;;;;;;;;;5027741;28;20903;-77
2022/08/29 08:50:16;;;;;;;2.37;1.00;;;;;;;;;;5025212;28;20196;-77
2022/08/29 08:53:06;;;;;;;1.47;0.80;;;;;;;;;;5046272;28;20276;-78
2022/08/29 08:55:41;;;;;;;2.53;1.00;;;;;;;;;;5047234;28;20196;-77
2022/08/29 08:58:18;;;;;;;1.23;1.00;;;;;;;;;;5029727;28;20194;-77
2022/08/29 09:00:57;;;;;;;2.93;1.00;;;;;;;;;;5027475;28;20203;-78
2022/08/29 09:03:31;;;;;;;2.23;1.07;;;;;;;;;;5041545;28;20220;-76
2022/08/29 09:06:20;;;;;;;2.10;1.00;;;;;;;;;;5033660;28;20278;-79
2022/08/29 09:09:08;;;;;;;2.80;1.30;;;;;;;;;;5047720;28;20266;-78
2022/08/29 09:11:44;;;;;;;2.40;1.10;;;;;;;;;;5048706;28;20278;-78
2022/08/29 09:14:32;;;;;;;2.27;0.70;;;;;;;;;;5050860;28;20245;-78
2022/08/29 09:17:02;;;;;;;3.40;1.17;;;;;;;;;;5047533;28;20183;-77
2022/08/29 09:19:29;;;;;;;2.03;1.17;;;;;;;;;;5047875;28;20553;-78
2022/08/29 09:22:04;;;;;;;1.77;1.00;;;;;;;;;;5051030;28;20197;-77
2022/08/29 09:24:32;;;;;;;3.03;1.27;;;;;;;;;;5049557;28;20259;-77
2022/08/29 09:27:01;;;;;;;2.70;1.17;;;;;;;;;;5045560;28;20187;-78
2022/08/29 09:29:29;;;;;;;3.80;1.13;;;;;;;;;;5029412;28;20684;-77
2022/08/29 09:32:10;;;;;;;2.03;1.00;;;;;;;;;;5035595;28;20594;-76
2022/08/29 09:34:38;;;;;;;1.73;1.00;;;;;;;;;;5020674;28;20283;-77
2022/08/29 09:37:27;;;;;;;2.40;1.20;;;;;;;;;;5035576;28;20192;-76
2022/08/29 09:39:57;;;;;;;1.10;1.00;;;;;;;;;;5027174;28;20193;-76
2022/08/29 09:42:45;;;;;;;3.07;1.10;;;;;;;;;;5017184;28;20275;-77
2022/08/29 09:45:19;;;;;;;2.07;1.03;;;;;;;;;;5030724;28;20223;-76
2022/08/29 09:47:47;;;;;;;2.57;1.00;;;;;;;;;;5032157;28;20182;-77
2022/08/29 09:50:23;;;;;;;2.70;1.23;;;;;;;;;;5031181;28;20338;-77
2022/08/29 09:52:55;;;;;;;2.20;1.40;;;;;;;;;;5038142;28;20808;-76
2022/08/29 09:55:33;;;;;;;2.27;1.20;;;;;;;;;;5033794;28;20194;-76
2022/08/29 09:58:02;;;;;;;4.23;1.40;;;;;;;;;;5034893;28;20188;-77
2022/08/29 10:00:49;;;;;;;2.57;1.30;;;;;;;;;;5011807;28;20227;-77
2022/08/29 10:03:20;;;;;;;2.43;1.20;;;;;;;;;;5027295;28;20733;-76
2022/08/29 10:05:49;;;;;;;1.13;0.90;;;;;;;;;;5026473;28;20286;-77
2022/08/29 10:08:24;;;;;;;2.93;1.30;;;;;;;;;;5032617;28;20271;-77
2022/08/29 10:10:53;;;;;;;1.97;1.10;;;;;;;;;;5031586;28;20546;-77
2022/08/29 10:13:21;;;;;;;1.73;1.30;;;;;;;;;;5029383;28;20196;-77
2022/08/29 10:16:00;;;;;;;3.27;1.20;;;;;;;;;;5022396;28;20201;-76
2022/08/29 10:18:31;;;;;;;3.20;1.30;;;;;;;;;;5039184;28;20651;-76
2022/08/29 10:21:23;;;;;;;2.30;1.20;;;;;;;;;;5033484;28;20669;-77
2022/08/29 10:23:54;;;;;;;5.40;1.60;;;;;;;;;;5033598;28;20228;-76
2022/08/29 10:26:21;;;;;;;2.13;1.50;;;;;;;;;;5019936;28;20190;-77
2022/08/29 10:29:03;;;;;;;2.50;1.37;;;;;;;;;;5040815;28;20225;-76
2022/08/29 10:32:09;;;;;;;5.20;2.53;;;;;;;;;;5022516;28;20199;-78
2022/08/29 10:34:48;;;;;;;3.50;1.30;;;;;;;;;;5037654;28;20287;-75
2022/08/29 10:37:20;;;;;;;1.80;1.50;;;;;;;;;;5028779;28;20202;-77
2022/08/29 10:39:51;;;;;;;2.13;1.37;;;;;;;;;;5015352;28;20222;-76
2022/08/29 10:42:20;;;;;;;1.73;1.20;;;;;;;;;;5026707;28;20219;-77
2022/08/29 10:45:02;;;;;;;3.47;1.77;;;;;;;;;;5034170;28;20226;-77
2022/08/29 10:47:31;;;;;;;2.00;1.23;;;;;;;;;;5047096;28;20191;-78
2022/08/29 10:50:10;;;;;;;4.07;1.70;;;;;;;;;;5032612;28;21097;-76
2022/08/29 10:53:13;;;;;;;2.47;1.33;;;;;;;;;;5029766;28;20812;-78
2022/08/29 10:55:52;;;;;;;4.47;1.40;;;;;;;;;;5014688;28;20601;-77
2022/08/29 10:58:22;;;;;;;5.10;1.37;;;;;;;;;;5014053;28;20195;-77
2022/08/29 11:00:51;;;;;;;3.40;1.70;;;;;;;;;;5011956;28;20196;-77
2022/08/29 11:03:21;;;;;;;1.60;1.20;;;;;;;;;;5021876;28;20980;-77
2022/08/29 11:06:08;;;;;;;3.20;1.37;;;;;;;;;;5034943;28;20565;-77
2022/08/29 11:08:41;;;;;;;2.93;1.30;;;;;;;;;;5033223;28;20191;-79
2022/08/29 11:11:08;;;;;;;3.43;1.57;;;;;;;;;;4998349;28;20196;-78
2022/08/29 11:13:39;;;;;;;2.40;1.23;;;;;;;;;;5031029;28;20210;-77
2022/08/29 11:16:30;;;;;;;2.80;1.50;;;;;;;;;;5044607;28;20183;-77
2022/08/29 11:19:03;;;;;;;2.13;1.03;;;;;;;;;;5029043;28;20196;-77
2022/08/29 11:21:35;;;;;;;2.50;1.30;;;;;;;;;;5033536;28;20219;-77
2022/08/29 11:24:03;;;;;;;1.97;1.10;;;;;;;;;;5033871;28;20904;-77
2022/08/29 11:26:50;;;;;;;3.80;1.30;;;;;;;;;;5027227;28;20187;-78
2022/08/29 11:29:23;;;;;;;1.73;1.00;;;;;;;;;;5026624;28;20250;-78
2022/08/29 11:32:06;;;;;;;1.77;1.17;;;;;;;;;;5015139;28;20203;-76
2022/08/29 11:34:39;;;;;;;1.97;1.00;;;;;;;;;;5030550;28;20273;-77
2022/08/29 11:37:25;;;;;;;1.83;1.20;;;;;;;;;;5048272;28;20187;-77
2022/08/29 11:39:55;;;;;;;2.47;1.07;;;;;;;;;;5048522;28;20187;-77
2022/08/29 11:42:27;;;;;;;2.03;1.13;;;;;;;;;;5043240;28;20667;-77
2022/08/29 11:45:13;;;;;;;2.13;1.27;;;;;;;;;;5044168;28;20344;-77
2022/08/29 11:47:59;;;;;;;3.13;0.93;;;;;;;;;;5047018;28;20179;-78
2022/08/29 11:50:42;;;;;;;3.03;1.10;;;;;;;;;;5035609;28;20255;-75
2022/08/29 11:53:43;;;;;;;2.80;1.10;;;;;;;;;;5043183;28;20202;-76
2022/08/29 11:56:14;;;;;;;2.20;1.17;;;;;;;;;;5045654;28;20203;-77
2022/08/29 11:58:44;;;;;;;1.43;1.13;;;;;;;;;;5048039;28;20202;-77
2022/08/29 12:01:24;;;;;;;2.43;1.20;;;;;;;;;;5047489;28;20218;-70
2022/08/29 12:03:52;;;;;;;2.73;1.20;;;;;;;;;;5039416;28;20204;-75
2022/08/29 12:06:30;;;;;;;1.83;1.10;;;;;;;;;;5047181;28;20199;-73
2022/08/29 12:09:00;;;;;;;2.07;1.10;;;;;;;;;;5053227;28;20187;-73
2022/08/29 12:12:11;;;;;;;1.87;1.00;;;;;;;;;;5029979;28;20198;-73
2022/08/29 12:14:45;;;;;;;4.10;1.10;;;;;;;;;;5005059;28;20209;-73
2022/08/29 12:17:15;;;;;;;3.50;1.40;;;;;;;;;;4988434;28;20813;-73
2022/08/29 12:19:49;;;;;;;3.53;1.30;;;;;;;;;;5021674;28;20211;-73
2022/08/29 12:22:35;;;;;;;1.77;1.00;;;;;;;;;;5047224;28;20201;-73
2022/08/29 12:25:25;;;;;;;2.00;1.37;;;;;;;;;;5039346;28;20257;-70
2022/08/29 12:27:58;;;;;;;3.70;1.40;;;;;;;;;;5010813;28;20203;-73
2022/08/29 12:30:27;;;;;;;5.67;1.20;;;;;;;;;;5039350;28;20230;-71
2022/08/29 12:32:56;;;;;;;4.47;1.60;;;;;;;;;;5036005;28;20306;-72
2022/08/29 12:35:32;;;;;;;3.70;1.63;;;;;;;;;;5043169;28;20220;-81
2022/08/29 12:38:16;;;;;;;3.17;1.50;;;;;;;;;;5043995;28;20197;-77
2022/08/29 12:40:46;;;;;;;3.67;1.47;;;;;;;;;;5045886;28;20639;-75
2022/08/29 12:43:29;;;;;;;4.87;1.30;;;;;;;;;;5043591;28;20268;-75
2022/08/29 12:45:56;;;;;;;3.87;1.40;;;;;;;;;;5044944;28;20210;-83
2022/08/29 12:48:24;;;;;;;3.93;1.57;;;;;;;;;;5039923;28;20190;-75
2022/08/29 12:50:53;;;;;;;2.50;1.60;;;;;;;;;;5028975;28;20230;-78
2022/08/29 12:53:22;;;;;;;2.80;1.40;;;;;;;;;;5040114;28;20183;-72
2022/08/29 12:56:13;;;;;;;3.63;1.40;;;;;;;;;;5010737;28;20227;-73
2022/08/29 12:58:41;;;;;;;2.83;1.80;;;;;;;;;;5033815;28;20223;-72
2022/08/29 13:01:29;;;;;;;3.27;1.70;;;;;;;;;;5022425;28;20232;-75
2022/08/29 13:04:12;;;;;;;2.23;1.70;;;;;;;;;;5024176;28;20268;-71
2022/08/29 13:06:49;;;;;;;3.37;1.93;;;;;;;;;;5026133;28;20190;-71
2022/08/29 13:09:33;;;;;;;3.97;1.70;;;;;;;;;;5023498;28;20275;-71
2022/08/29 13:12:20;;;;;;;2.20;1.60;;;;;;;;;;5044491;28;20201;-74
2022/08/29 13:14:48;;;;;;;2.70;1.23;;;;;;;;;;5042406;28;20234;-72
2022/08/29 13:17:34;;;;;;;2.83;1.63;;;;;;;;;;5043488;28;20202;-73
2022/08/29 13:20:20;;;;;;;3.63;1.80;;;;;;;;;;5040657;28;20266;-75
2022/08/29 13:22:47;;;;;;;3.07;1.60;;;;;;;;;;5041261;28;20203;-74
2022/08/29 13:25:18;;;;;;;3.03;1.90;;;;;;;;;;5041759;28;20230;-72
2022/08/29 13:27:47;;;;;;;3.70;1.70;;;;;;;;;;5044471;28;20713;-70
2022/08/29 13:30:21;;;;;;;2.53;1.93;;;;;;;;;;5030881;28;20639;-72
2022/08/29 13:32:49;;;;;;;2.90;1.50;;;;;;;;;;5042169;28;20280;-72
2022/08/29 13:35:34;;;;;;;5.03;1.70;;;;;;;;;;5026042;28;20822;-69
2022/08/29 13:38:22;;;;;;;2.10;1.43;;;;;;;;;;5041976;28;20194;-69
2022/08/29 13:40:52;;;;;;;2.77;1.57;;;;;;;;;;5043046;28;20198;-69
2022/08/29 13:43:33;;;;;;;1.70;1.37;;;;;;;;;;5022623;28;20264;-69
2022/08/29 13:46:01;;;;;;;3.43;1.40;;;;;;;;;;5042299;28;20215;-72
2022/08/29 13:48:29;;;;;;;2.63;1.67;;;;;;;;;;5047564;28;20195;-72
2022/08/29 13:50:55;;;;;;;2.47;1.30;;;;;;;;;;5019449;28;20302;-72
2022/08/29 13:53:40;;;;;;;2.90;1.60;;;;;;;;;;5028874;28;20189;-72
2022/08/29 13:56:22;;;;;;;2.57;1.40;;;;;;;;;;5041851;28;20210;-72
2022/08/29 13:58:51;;;;;;;3.20;1.30;;;;;;;;;;5015569;28;20620;-67
2022/08/29 14:01:21;;;;;;;1.80;1.40;;;;;;;;;;5031723;28;20212;-67
2022/08/29 14:03:56;;;;;;;3.47;1.20;;;;;;;;;;5044609;28;20190;-67
2022/08/29 14:06:32;;;;;;;1.90;1.23;;;;;;;;;;5045046;28;20218;-67
2022/08/29 14:09:02;;;;;;;1.70;1.10;;;;;;;;;;5047827;28;20186;-67
2022/08/29 14:11:28;;;;;;;2.93;1.10;;;;;;;;;;5037852;28;20555;-68
2022/08/29 14:13:55;;;;;;;2.77;1.30;;;;;;;;;;5017134;28;20657;-67
2022/08/29 14:16:23;;;;;;;1.93;1.40;;;;;;;;;;5043476;28;20192;-68
2022/08/29 14:18:52;;;;;;;2.57;1.37;;;;;;;;;;5040292;28;20672;-68
2022/08/29 14:21:19;;;;;;;3.00;1.50;;;;;;;;;;5042392;28;20207;-69
2022/08/29 14:23:47;;;;;;;2.77;1.60;;;;;;;;;;5041571;28;20723;-66
2022/08/29 14:26:14;;;;;;;3.23;1.53;;;;;;;;;;5040397;28;20227;-67
2022/08/29 14:28:42;;;;;;;2.13;1.30;;;;;;;;;;5041227;28;20611;-67
2022/08/29 14:31:13;;;;;;;2.20;1.03;;;;;;;;;;5045282;28;20202;-67
2022/08/29 14:33:40;;;;;;;1.37;1.00;;;;;;;;;;5048067;28;20591;-67
2022/08/29 14:36:11;;;;;;;1.43;0.90;;;;;;;;;;5024824;28;20192;-67
2022/08/29 14:38:37;;;;;;;2.10;1.10;;;;;;;;;;5020676;28;20244;-67
2022/08/29 14:41:04;;;;;;;4.13;1.30;;;;;;;;;;5048844;28;20191;-67
2022/08/29 14:43:48;;;;;;;2.47;1.40;;;;;;;;;;5044387;28;20181;-67
2022/08/29 14:46:15;;;;;;;2.33;1.20;;;;;;;;;;5048406;28;20213;-67
2022/08/29 14:48:42;;;;;;;1.97;1.40;;;;;;;;;;5030373;28;20586;-66
2022/08/29 14:51:09;;;;;;;3.20;1.30;;;;;;;;;;5034882;28;20313;-67
2022/08/29 14:53:36;;;;;;;2.63;1.50;;;;;;;;;;5042581;28;20277;-67
2022/08/29 14:56:23;;;;;;;3.33;1.60;;;;;;;;;;5048625;28;20650;-67
2022/08/29 14:59:10;;;;;;;3.47;1.60;;;;;;;;;;5033249;28;20596;-67
2022/08/29 15:01:38;;;;;;;2.40;1.57;;;;;;;;;;5037514;28;20183;-66
2022/08/29 15:04:05;;;;;;;4.23;1.53;;;;;;;;;;5040237;28;20614;-66
2022/08/29 15:06:32;;;;;;;2.87;1.53;;;;;;;;;;5047362;28;20221;-66